Time;durP1;ratioP1;P1;durP2;ratioP2;P2;SDS_P1;SDS_P2;PMS_P1;PMS_P2;Temp;Humidity;BMP_temperature;BMP_pressure;BME280_temperature;BME280_humidity;BME280_pressure;Samples;Min_cycle;Max_cycle;Signal;HPM_P1;HPM_P2
2023/03/26 00:08:35;;;;;;;319.73;288.20;;;;;;;22.74;46.33;99787.72;20528093;28;20069;-76
2023/03/26 00:18:39;;;;;;;341.03;307.67;;;;;;;22.74;46.32;99782.44;20515945;28;20034;-76
2023/03/26 00:28:41;;;;;;;323.70;292.05;;;;;;;22.73;46.43;99772.88;20523551;28;20292;-75
2023/03/26 00:38:43;;;;;;;342.45;308.95;;;;;;;22.70;46.39;99781.91;20525619;28;20054;-76
2023/03/26 00:48:45;;;;;;;340.10;307.00;;;;;;;22.71;46.51;99776.47;20524395;28;20051;-75
2023/03/26 00:58:48;;;;;;;332.37;299.87;;;;;;;22.68;46.43;99768.88;20527139;28;21102;-76
2023/03/26 01:08:51;;;;;;;356.98;322.13;;;;;;;22.67;46.60;99772.47;20505064;28;20046;-78
2023/03/26 01:18:52;;;;;;;349.23;315.00;;;;;;;22.65;46.86;99758.56;20521135;28;20143;-77
2023/03/26 01:28:57;;;;;;;386.98;348.90;;;;;;;22.64;46.57;99769.28;20512397;28;20060;-74
2023/03/26 01:39:17;;;;;;;366.48;330.60;;;;;;;22.63;46.95;99773.75;20513791;28;20067;-75
2023/03/26 01:49:18;;;;;;;403.05;363.15;;;;;;;22.64;46.85;99780.69;20521474;28;20070;-75
2023/03/26 01:59:55;;;;;;;426.88;384.33;;;;;;;22.63;46.93;99768.47;20525265;28;20043;-75
2023/03/26 02:10:01;;;;;;;438.50;394.80;;;;;;;22.63;47.15;99781.66;20519362;28;20102;-73
2023/03/26 02:20:04;;;;;;;472.73;426.40;;;;;;;22.63;46.98;99784.31;20507308;28;20054;-74
2023/03/26 02:30:08;;;;;;;476.17;429.67;;;;;;;22.61;47.14;99786.25;20510058;28;20065;-75
2023/03/26 02:40:10;;;;;;;468.88;423.00;;;;;;;22.61;46.96;99775.69;20497016;28;20049;-75
2023/03/26 02:50:10;;;;;;;468.27;422.38;;;;;;;22.59;47.03;99774.16;20511357;28;20406;-74
2023/03/26 03:00:15;;;;;;;502.75;454.42;;;;;;;22.59;47.16;99761.78;20517974;28;20052;-76
2023/03/26 03:10:20;;;;;;;509.35;460.58;;;;;;;22.57;47.28;99776.09;20518162;28;20161;-72
2023/03/26 03:20:21;;;;;;;481.75;435.00;;;;;;;22.53;47.41;99767.66;20528594;28;20058;-72
2023/03/26 03:30:21;;;;;;;513.33;464.40;;;;;;;22.52;47.28;99763.34;20532357;28;20051;-73
2023/03/26 03:40:22;;;;;;;507.55;459.05;;;;;;;22.54;47.25;99771.94;20517219;28;20312;-74
2023/03/26 03:50:24;;;;;;;492.05;444.70;;;;;;;22.53;47.56;99783.47;20537199;28;20074;-74
2023/03/26 04:00:24;;;;;;;495.43;447.80;;;;;;;22.53;47.57;99778.19;20524414;28;20371;-74
2023/03/26 04:10:37;;;;;;;486.20;439.20;;;;;;;22.51;47.55;99775.72;20530143;28;20047;-77
2023/03/26 04:20:45;;;;;;;512.22;463.33;;;;;;;22.51;47.71;99791.53;20537645;28;20043;-78
2023/03/26 04:30:45;;;;;;;487.25;440.00;;;;;;;22.50;47.62;99781.97;20535816;28;20055;-76
2023/03/26 04:40:46;;;;;;;529.20;479.08;;;;;;;22.50;47.50;99776.69;20522795;28;20071;-76
2023/03/26 04:50:47;;;;;;;523.73;474.10;;;;;;;22.49;47.42;99787.38;20530086;28;20042;-77
2023/03/26 05:00:48;;;;;;;523.45;473.80;;;;;;;22.48;47.75;99791.81;20529146;28;20303;-76
2023/03/26 05:10:48;;;;;;;514.50;465.55;;;;;;;22.48;47.74;99780.44;20509798;28;20054;-74
2023/03/26 05:20:49;;;;;;;513.50;464.55;;;;;;;22.47;47.44;99778.78;20529638;28;20039;-74
2023/03/26 05:30:51;;;;;;;489.15;441.95;;;;;;;22.48;47.54;99781.25;20515918;28;20063;-74
2023/03/26 05:41:06;;;;;;;490.25;442.98;;;;;;;22.48;47.56;99773.34;20508837;28;20046;-75
2023/03/26 05:51:07;;;;;;;87.60;81.10;;;;;;;22.38;39.29;99776.00;20502906;28;20062;-74
2023/03/26 06:01:15;;;;;;;100.00;92.43;;;;;;;21.97;33.15;99783.25;20510102;28;20391;-78
2023/03/26 06:11:18;;;;;;;196.05;178.00;;;;;;;21.69;31.45;99780.44;20516982;28;20062;-76
2023/03/26 06:21:19;;;;;;;175.93;160.18;;;;;;;21.54;30.44;99779.97;20522276;28;20059;-76
2023/03/26 06:31:20;;;;;;;250.98;227.68;;;;;;;21.28;29.86;99767.28;20500394;28;20088;-81
2023/03/26 06:41:20;;;;;;;226.38;205.38;;;;;;;21.67;33.61;99771.84;20505358;28;20051;-78
2023/03/26 06:51:21;;;;;;;211.23;191.40;;;;;;;21.86;37.26;99772.81;20515115;28;20134;-76
2023/03/26 07:01:21;;;;;;;194.00;176.10;;;;;;;21.97;39.73;99779.75;20546402;28;20055;-79
2023/03/26 07:11:24;;;;;;;193.98;176.00;;;;;;;22.02;41.52;99765.19;20547612;28;20498;-78
2023/03/26 07:21:30;;;;;;;194.27;176.15;;;;;;;22.11;42.09;99754.78;20538211;28;20039;-78
2023/03/26 07:31:54;;;;;;;170.30;154.98;;;;;;;22.17;42.89;99755.06;20540500;28;20042;-81
2023/03/26 07:42:19;;;;;;;182.98;166.43;;;;;;;22.22;42.77;99765.19;20537424;28;20077;-80
2023/03/26 07:52:20;;;;;;;193.57;175.80;;;;;;;22.24;42.81;99757.97;20562417;28;20050;-76
2023/03/26 08:03:00;;;;;;;196.10;177.95;;;;;;;22.22;38.93;99760.72;20524961;28;20046;-76
2023/03/26 08:13:09;;;;;;;184.80;167.32;;;;;;;22.13;36.39;99782.69;20537640;28;20127;-75
2023/03/26 08:23:26;;;;;;;177.55;161.30;;;;;;;22.02;34.54;99765.19;20532136;28;20055;-76
2023/03/26 08:33:27;;;;;;;188.25;171.07;;;;;;;22.03;33.86;99763.38;20543194;28;20165;-75
2023/03/26 08:43:41;;;;;;;178.63;162.63;;;;;;;22.04;34.00;99754.50;20526840;28;20125;-74
2023/03/26 08:54:05;;;;;;;181.65;165.18;;;;;;;22.01;34.37;99749.53;20524275;28;20054;-76
2023/03/26 09:04:06;;;;;;;161.50;147.40;;;;;;;22.10;35.75;99737.31;20529964;28;20049;-80
2023/03/26 09:14:42;;;;;;;175.10;159.23;;;;;;;22.17;36.98;99733.13;20529356;28;20039;-75
2023/03/26 09:25:07;;;;;;;180.63;163.77;;;;;;;21.99;34.79;99733.00;20478288;28;20061;-72
2023/03/26 09:35:26;;;;;;;254.27;230.25;;;;;;;21.87;35.20;99721.78;20527074;28;20067;-76
2023/03/26 09:45:49;;;;;;;257.42;232.82;;;;;;;21.92;35.39;99714.28;20524443;28;20054;-76
2023/03/26 09:56:15;;;;;;;275.40;249.07;;;;;;;22.06;36.41;99695.38;20530720;28;20148;-77
2023/03/26 10:06:18;;;;;;;270.15;244.05;;;;;;;22.20;37.64;99685.38;20518104;28;20046;-78
2023/03/26 10:16:25;;;;;;;401.65;361.83;;;;;;;22.29;39.06;99650.25;20516238;28;20562;-76
2023/03/26 10:26:55;;;;;;;372.38;335.55;;;;;;;22.31;37.20;99652.72;20514280;28;20046;-76
2023/03/26 10:37:05;;;;;;;351.27;317.17;;;;;;;22.18;37.03;99645.97;20521243;28;21195;-76
2023/03/26 10:47:28;;;;;;;367.85;331.83;;;;;;;22.09;36.52;99646.81;20523061;28;20047;-78
2023/03/26 10:57:36;;;;;;;;;;;;;;;22.29;38.35;99638.84;20516175;28;20383;-74
2023/03/26 11:07:49;;;;;;;372.48;335.83;;;;;;;22.42;39.28;99615.63;20530760;28;19933;-75
2023/03/26 11:17:58;;;;;;;406.27;366.23;;;;;;;22.27;37.70;99595.97;20519044;28;20051;-74
2023/03/26 11:28:18;;;;;;;408.27;367.92;;;;;;;22.35;38.87;99585.50;20528127;28;20082;-72
2023/03/26 11:38:40;;;;;;;401.70;360.98;;;;;;;22.53;42.47;99561.84;20521107;28;20054;-72
2023/03/26 11:48:45;;;;;;;361.10;324.65;;;;;;;22.46;39.32;99535.25;20513687;28;21010;-76
2023/03/26 11:58:50;;;;;;;373.27;336.15;;;;;;;22.77;45.60;99519.06;20517361;28;20054;-78
2023/03/26 12:08:50;;;;;;;265.10;238.50;;;;;;;23.02;47.74;99485.81;20528741;28;20122;-80
2023/03/26 12:19:16;;;;;;;212.27;191.55;;;;;;;23.15;46.47;99463.44;20519005;28;20449;-79
2023/03/26 12:29:19;;;;;;;238.88;215.40;;;;;;;23.26;46.25;99442.09;20522182;28;20054;-78
2023/03/26 12:39:25;;;;;;;;;;;;;;;23.34;45.60;99418.38;20530953;28;20106;-78
2023/03/26 12:49:27;;;;;;;225.52;203.73;;;;;;;23.46;44.95;99400.44;20527262;28;19977;-76
2023/03/26 12:59:33;;;;;;;218.03;196.93;;;;;;;23.53;44.40;99395.34;20528308;28;20047;-78
2023/03/26 13:09:59;;;;;;;184.43;166.98;;;;;;;23.59;44.18;99378.03;20524556;28;20061;-77
2023/03/26 13:20:12;;;;;;;186.07;168.63;;;;;;;23.65;43.55;99345.69;20510859;28;20947;-76
2023/03/26 13:30:25;;;;;;;235.77;212.88;;;;;;;23.79;43.49;99323.06;20501435;28;20051;-76
2023/03/26 13:40:49;;;;;;;262.05;236.00;;;;;;;23.81;43.25;99318.47;20536843;28;20080;-77
2023/03/26 13:51:39;;;;;;;254.13;229.07;;;;;;;23.90;43.26;99300.78;20539590;28;20074;-74
2023/03/26 14:01:46;;;;;;;258.25;232.68;;;;;;;23.93;43.15;99277.53;20264674;28;20050;-75
2023/03/26 14:11:56;;;;;;;257.35;231.48;;;;;;;23.96;43.20;99265.78;20543556;28;20099;-78
2023/03/26 14:22:12;;;;;;;303.98;272.95;;;;;;;24.01;43.34;99257.38;20513674;28;20098;-75
2023/03/26 14:33:01;;;;;;;351.00;315.20;;;;;;;24.04;43.97;99238.53;20521446;28;20035;-80
2023/03/26 14:43:36;;;;;;;391.00;350.70;;;;;;;24.11;44.42;99224.47;20513838;28;20245;-76
2023/03/26 14:53:42;;;;;;;286.45;257.15;;;;;;;24.20;44.86;99216.56;20521846;28;20056;-77
2023/03/26 15:03:47;;;;;;;376.30;337.45;;;;;;;24.25;45.11;99198.34;20527354;28;20855;-76
2023/03/26 15:14:25;;;;;;;436.50;391.63;;;;;;;24.35;45.19;99195.53;20532571;28;20070;-75
2023/03/26 15:24:26;;;;;;;352.42;316.27;;;;;;;23.94;28.17;99173.44;20544792;28;20042;-75
2023/03/26 15:34:47;;;;;;;316.87;284.67;;;;;;;23.69;25.85;99148.78;20535076;28;20102;-75
2023/03/26 15:45:22;;;;;;;269.07;242.43;;;;;;;23.50;26.31;99152.59;20553378;28;20050;-72
2023/03/26 15:55:29;;;;;;;648.42;588.58;;;;;;;23.30;25.52;99139.69;20557946;28;20130;-69
2023/03/26 16:06:01;;;;;;;688.47;626.78;;;;;;;22.27;25.12;99122.13;20563840;28;20124;-75
2023/03/26 16:16:01;;;;;;;642.10;584.10;;;;;;;22.18;25.38;99099.34;20542092;28;20062;-74
2023/03/26 16:26:08;;;;;;;614.25;558.50;;;;;;;21.73;25.47;99085.41;20559093;28;20413;-75
2023/03/26 16:36:33;;;;;;;565.80;513.42;;;;;;;21.80;26.53;99082.97;20548530;28;20053;-74
2023/03/26 16:46:42;;;;;;;657.13;598.38;;;;;;;;;;20537144;28;20070;-74
2023/03/26 16:56:51;;;;;;;764.40;697.95;;;;;;;21.91;26.03;99073.00;20535772;28;20074;-74
2023/03/26 17:07:30;;;;;;;728.15;663.75;;;;;;;22.30;29.44;99065.59;20535576;28;20170;-78
2023/03/26 17:17:56;;;;;;;714.42;650.97;;;;;;;22.49;32.23;99075.13;20477752;28;20051;-76
2023/03/26 17:28:26;;;;;;;672.80;611.92;;;;;;;22.58;33.49;99081.25;20546782;28;20039;-74
2023/03/26 17:38:28;;;;;;;682.38;620.90;;;;;;;22.66;34.55;99076.81;20518732;28;20184;-74
2023/03/26 17:48:34;;;;;;;741.33;675.67;;;;;;;22.66;35.34;99071.53;20523874;28;20066;-77
2023/03/26 17:58:41;;;;;;;731.80;666.70;;;;;;;22.72;36.18;99072.72;20530185;28;20525;-74
2023/03/26 18:08:58;;;;;;;757.53;690.45;;;;;;;22.72;36.71;99072.72;20513893;28;20043;-76
2023/03/26 18:19:16;;;;;;;759.00;692.08;;;;;;;22.74;36.89;99075.19;20531128;28;20055;-77
2023/03/26 18:29:34;;;;;;;795.92;726.25;;;;;;;22.74;37.02;99069.91;20532446;28;20125;-77
2023/03/26 18:39:38;;;;;;;802.75;732.97;;;;;;;22.72;37.18;99046.34;20523781;28;20043;-76
2023/03/26 18:49:44;;;;;;;789.20;720.10;;;;;;;22.73;37.58;99037.44;20525629;28;20047;-78
2023/03/26 18:59:49;;;;;;;774.00;706.17;;;;;;;22.72;38.00;99017.31;20515353;28;20047;-75
2023/03/26 19:09:55;;;;;;;765.22;697.55;;;;;;;22.69;37.65;99005.28;20510341;28;20042;-72
2023/03/26 19:19:57;;;;;;;803.67;733.65;;;;;;;22.70;37.43;98993.72;20527307;28;20052;-73
2023/03/26 19:29:58;;;;;;;785.27;716.27;;;;;;;22.71;37.84;98976.06;20513649;28;20064;-73
2023/03/26 19:40:13;;;;;;;747.75;681.67;;;;;;;22.71;38.29;98974.25;20498838;28;20190;-71
2023/03/26 19:50:25;;;;;;;770.72;702.95;;;;;;;22.68;38.63;98940.28;20499797;28;20046;-71
2023/03/26 20:00:27;;;;;;;784.58;715.78;;;;;;;22.69;38.94;98920.84;20528372;28;20062;-73
2023/03/26 20:10:28;;;;;;;767.40;699.93;;;;;;;22.70;39.03;98892.63;20531851;28;20410;-73
2023/03/26 20:20:29;;;;;;;788.05;719.08;;;;;;;22.71;39.28;98873.16;20512713;28;20063;-73
2023/03/26 20:30:30;;;;;;;834.08;762.00;;;;;;;22.70;39.45;98848.63;20510016;28;20047;-73
2023/03/26 20:40:31;;;;;;;899.13;822.65;;;;;;;22.71;39.45;98836.22;20514835;28;20061;-73
2023/03/26 20:50:31;;;;;;;913.35;835.97;;;;;;;22.71;39.48;98823.84;20522663;28;24074;-73
2023/03/26 21:00:32;;;;;;;890.93;815.03;;;;;;;22.72;39.30;98822.06;20530620;28;20049;-73
2023/03/26 21:10:35;;;;;;;876.63;801.72;;;;;;;22.73;39.65;98814.94;20524319;28;20380;-73
2023/03/26 21:20:36;;;;;;;916.67;839.10;;;;;;;22.71;39.76;98810.66;20525795;28;20070;-73
2023/03/26 21:30:37;;;;;;;902.72;825.90;;;;;;;22.71;40.06;98812.47;20487128;28;1198431;-73
2023/03/26 21:40:38;;;;;;;915.30;837.88;;;;;;;22.73;40.03;98868.56;20528715;28;20047;-73
2023/03/26 21:50:38;;;;;;;892.92;817.03;;;;;;;22.70;40.36;98879.44;20510493;28;20047;-71
2023/03/26 22:00:56;;;;;;;911.80;834.78;;;;;;;22.70;40.72;98860.97;20522049;28;20102;-71
2023/03/26 22:10:56;;;;;;;926.53;848.38;;;;;;;22.69;40.98;98849.59;20503929;28;20057;-73
2023/03/26 22:20:58;;;;;;;979.80;898.55;;;;;;;22.68;41.12;98829.47;20525125;28;20042;-73
2023/03/26 22:31:05;;;;;;;961.93;882.03;;;;;;;22.69;40.99;98811.81;20517818;28;20047;-73
2023/03/26 22:41:06;;;;;;;945.15;866.15;;;;;;;22.67;41.40;98809.34;20528753;28;20047;-70
2023/03/26 22:51:08;;;;;;;987.88;906.22;;;;;;;22.65;41.33;98798.13;20525926;28;20047;-72
2023/03/26 23:01:19;;;;;;;987.83;906.40;;;;;;;22.64;41.66;98778.03;20529026;28;20129;-73
2023/03/26 23:11:20;;;;;;;967.17;886.53;;;;;;;22.63;41.88;98773.75;20525806;28;20051;-73
2023/03/26 23:21:21;;;;;;;958.30;878.40;;;;;;;22.62;41.79;98766.81;20525149;28;20089;-72
2023/03/26 23:31:24;;;;;;;954.15;874.53;;;;;;;22.63;41.76;98763.22;20523568;28;20043;-71
2023/03/26 23:41:26;;;;;;;946.22;867.03;;;;;;;22.61;42.01;98745.91;20531727;28;20062;-71
2023/03/26 23:51:28;;;;;;;975.83;895.13;;;;;;;22.60;41.82;98731.06;20534959;28;20138;-71
